createdAt,value
2023-05-19T00:01:55.221Z,12.25
2023-05-19T00:04:26.868Z,9.57
2023-05-19T00:07:02.031Z,10.13
2023-05-19T00:09:33.621Z,12.20
2023-05-19T00:12:04.612Z,9.80
2023-05-19T00:14:36.215Z,13.45
2023-05-19T00:17:07.992Z,13.75
2023-05-19T00:19:39.551Z,12.30
2023-05-19T00:22:11.313Z,11.77
2023-05-19T00:24:41.850Z,11.27
2023-05-19T00:27:12.274Z,12.63
2023-05-19T00:29:42.946Z,11.00
2023-05-19T00:32:13.489Z,13.52
2023-05-19T00:34:44.113Z,14.65
2023-05-19T00:37:15.871Z,12.95
2023-05-19T00:39:46.779Z,13.82
2023-05-19T00:42:17.058Z,12.23
2023-05-19T00:44:47.639Z,11.68
2023-05-19T00:47:17.951Z,12.15
2023-05-19T00:49:48.863Z,15.98
2023-05-19T00:52:20.467Z,12.77
2023-05-19T00:54:52.744Z,11.88
2023-05-19T00:57:23.576Z,11.90
2023-05-19T00:59:54.631Z,12.52
2023-05-19T01:02:25.098Z,13.45
2023-05-19T01:04:57.160Z,8.90
2023-05-19T01:07:29.747Z,11.25
2023-05-19T01:10:00.717Z,12.95
2023-05-19T01:12:31.790Z,10.57
2023-05-19T01:15:03.318Z,13.75
2023-05-19T01:17:45.676Z,12.15
2023-05-19T01:20:22.907Z,12.63
2023-05-19T01:23:24.374Z,13.55
2023-05-19T01:26:31.365Z,12.10
2023-05-19T01:29:25.468Z,15.38
2023-05-19T01:32:02.325Z,12.32
2023-05-19T01:34:34.622Z,12.88
2023-05-19T01:37:08.781Z,14.88
2023-05-19T01:39:41.564Z,12.98
2023-05-19T01:44:43.190Z,14.82
2023-05-19T01:47:15.747Z,12.23
2023-05-19T01:49:46.170Z,14.32
2023-05-19T01:52:16.939Z,15.52
2023-05-19T01:54:47.348Z,13.00
2023-05-19T01:57:36.876Z,13.50
2023-05-19T02:00:19.299Z,12.57
2023-05-19T02:03:13.959Z,15.52
2023-05-19T02:05:54.749Z,10.43
2023-05-19T02:08:42.884Z,11.45
2023-05-19T02:11:21.815Z,10.07
2023-05-19T02:13:57.217Z,9.43
2023-05-19T02:16:30.832Z,11.25
2023-05-19T02:19:03.178Z,13.65
2023-05-19T02:21:33.511Z,11.05
2023-05-19T02:24:04.539Z,10.60
2023-05-19T02:26:35.068Z,12.07
2023-05-19T02:29:08.206Z,13.30
2023-05-19T02:31:38.699Z,11.50
2023-05-19T02:34:11.865Z,10.20
2023-05-19T02:36:44.361Z,12.02
2023-05-19T02:39:15.232Z,13.63
2023-05-19T02:41:45.571Z,12.38
2023-05-19T02:44:16.547Z,12.15
2023-05-19T02:46:47.138Z,11.50
2023-05-19T02:49:19.711Z,9.82
2023-05-19T02:51:50.429Z,10.18
2023-05-19T02:54:21.152Z,13.20
2023-05-19T02:56:51.615Z,12.05
2023-05-19T02:59:25.397Z,11.90
2023-05-19T03:02:00.844Z,13.07
2023-05-19T03:04:42.220Z,10.50
2023-05-19T03:07:13.547Z,12.02
2023-05-19T03:09:44.600Z,12.30
2023-05-19T03:12:14.992Z,10.98
2023-05-19T03:14:45.634Z,15.13
2023-05-19T03:17:16.220Z,14.30
2023-05-19T03:19:48.281Z,12.18
2023-05-19T03:22:21.105Z,10.88
2023-05-19T03:24:53.486Z,10.68
2023-05-19T03:27:24.231Z,12.43
2023-05-19T03:29:55.073Z,10.85
2023-05-19T03:32:26.361Z,10.35
2023-05-19T03:34:58.668Z,11.90
2023-05-19T03:37:29.750Z,11.80
2023-05-19T03:40:01.158Z,16.27
2023-05-19T03:42:31.514Z,11.60
2023-05-19T03:45:02.541Z,13.93
2023-05-19T03:47:33.048Z,14.90
2023-05-19T03:50:27.533Z,12.00
2023-05-19T03:53:03.936Z,10.65
2023-05-19T03:55:42.010Z,17.35
2023-05-19T03:58:14.658Z,10.30
2023-05-19T04:00:45.470Z,9.57
2023-05-19T04:03:16.209Z,10.48
2023-05-19T04:05:48.744Z,11.82
2023-05-19T04:08:19.367Z,16.40
2023-05-19T04:10:50.106Z,8.40
2023-05-19T04:13:20.610Z,9.68
2023-05-19T04:15:51.649Z,7.13
2023-05-19T04:18:25.530Z,10.13
2023-05-19T04:20:59.828Z,9.23
2023-05-19T04:23:30.277Z,8.75
2023-05-19T04:26:02.042Z,11.02
2023-05-19T04:28:33.975Z,10.00
2023-05-19T04:31:11.222Z,10.75
2023-05-19T04:33:42.550Z,14.02
2023-05-19T04:36:17.559Z,10.63
2023-05-19T04:38:48.998Z,8.57
2023-05-19T04:41:21.162Z,9.45
2023-05-19T04:43:51.287Z,8.27
2023-05-19T04:46:24.582Z,11.77
2023-05-19T04:48:57.476Z,8.43
2023-05-19T04:51:31.428Z,7.32
2023-05-19T04:54:04.095Z,13.02
2023-05-19T04:56:34.909Z,7.38
2023-05-19T04:59:05.714Z,8.38
2023-05-19T05:01:40.713Z,7.43
2023-05-19T05:04:16.461Z,8.65
2023-05-19T05:06:48.959Z,6.53
2023-05-19T05:09:20.273Z,7.25
2023-05-19T05:11:52.617Z,6.43
2023-05-19T05:14:24.453Z,9.27
2023-05-19T05:16:57.684Z,8.00
2023-05-19T05:19:29.595Z,7.65
2023-05-19T05:22:03.413Z,5.93
2023-05-19T05:24:34.617Z,7.63
2023-05-19T05:27:10.480Z,7.20
2023-05-19T05:29:41.183Z,5.30
2023-05-19T05:32:13.339Z,7.82
2023-05-19T05:34:44.168Z,6.55
2023-05-19T05:37:16.593Z,4.43
2023-05-19T05:39:47.241Z,4.75
2023-05-19T05:42:17.951Z,8.68
2023-05-19T05:44:50.115Z,6.65
2023-05-19T05:47:22.549Z,7.63
2023-05-19T05:49:53.747Z,7.93
2023-05-19T05:52:31.096Z,6.95
2023-05-19T05:55:04.104Z,5.55
2023-05-19T05:57:36.667Z,5.93
2023-05-19T06:00:14.904Z,7.73
2023-05-19T06:02:55.369Z,7.15
2023-05-19T06:05:26.047Z,5.80
2023-05-19T06:07:59.452Z,5.00
2023-05-19T06:10:32.047Z,6.10
2023-05-19T06:13:04.027Z,8.68
2023-05-19T06:15:34.657Z,4.45
2023-05-19T06:18:10.739Z,6.43
2023-05-19T06:20:42.989Z,7.85
2023-05-19T06:23:15.192Z,5.25
2023-05-19T06:25:45.622Z,6.75
2023-05-19T06:28:17.074Z,7.65
2023-05-19T06:30:47.965Z,7.07
2023-05-19T06:33:28.977Z,7.78
2023-05-19T06:36:01.908Z,8.18
2023-05-19T06:38:34.917Z,7.97
2023-05-19T06:41:05.403Z,10.40
2023-05-19T06:43:36.773Z,8.27
2023-05-19T06:46:07.386Z,6.47
2023-05-19T06:48:38.309Z,8.20
2023-05-19T06:51:10.335Z,8.45
2023-05-19T06:53:44.728Z,7.22
2023-05-19T06:56:16.113Z,6.15
2023-05-19T06:58:46.817Z,10.55
2023-05-19T07:01:19.427Z,6.97
2023-05-19T07:03:56.504Z,6.32
2023-05-19T07:06:27.053Z,10.20
2023-05-19T07:08:59.510Z,7.82
2023-05-19T07:11:30.551Z,7.40
2023-05-19T07:14:04.033Z,9.75
2023-05-19T07:16:35.647Z,4.93
2023-05-19T07:19:06.318Z,10.60
2023-05-19T07:21:37.897Z,7.95
2023-05-19T07:24:10.157Z,5.82
2023-05-19T07:26:41.076Z,6.03
2023-05-19T07:29:11.677Z,6.50
2023-05-19T07:31:42.123Z,6.47
2023-05-19T07:34:12.776Z,8.15
2023-05-19T07:36:43.332Z,4.90
2023-05-19T07:39:17.856Z,9.80
2023-05-19T07:41:52.866Z,6.25
2023-05-19T07:44:23.707Z,5.55
2023-05-19T07:46:54.154Z,7.22
2023-05-19T07:49:26.007Z,4.85
2023-05-19T07:51:56.731Z,6.07
2023-05-19T07:54:28.870Z,5.68
2023-05-19T07:56:59.345Z,5.28
2023-05-19T07:59:30.053Z,4.22
2023-05-19T08:02:01.106Z,9.63
2023-05-19T08:04:32.014Z,8.65
2023-05-19T08:07:02.664Z,5.80
2023-05-19T08:09:34.764Z,6.50
2023-05-19T08:12:06.218Z,7.50
2023-05-19T08:14:37.591Z,7.13
2023-05-19T08:17:07.987Z,6.07
2023-05-19T08:19:38.741Z,6.88
2023-05-19T08:22:09.156Z,7.75
2023-05-19T08:24:43.287Z,9.50
2023-05-19T08:27:13.812Z,8.95
2023-05-19T08:29:44.565Z,6.80
2023-05-19T08:32:15.168Z,8.68
2023-05-19T08:34:46.032Z,6.15
2023-05-19T08:37:16.580Z,7.63
2023-05-19T08:39:48.725Z,7.28
2023-05-19T08:42:19.225Z,11.35
2023-05-19T08:44:49.920Z,7.38
2023-05-19T08:47:20.796Z,7.85
2023-05-19T08:49:57.461Z,8.77
2023-05-19T08:52:36.894Z,7.75
2023-05-19T08:55:18.472Z,6.32
2023-05-19T08:57:49.610Z,6.80
2023-05-19T09:00:21.248Z,8.50
2023-05-19T09:03:01.071Z,9.85
2023-05-19T09:05:42.588Z,12.18
2023-05-19T09:08:13.664Z,6.97
2023-05-19T09:10:45.748Z,7.55
2023-05-19T09:13:15.996Z,6.57
2023-05-19T09:15:46.913Z,10.32
2023-05-19T09:18:17.159Z,6.18
2023-05-19T09:20:48.371Z,7.40
2023-05-19T09:23:19.476Z,5.97
2023-05-19T09:25:53.227Z,9.15
2023-05-19T09:28:28.102Z,5.72
2023-05-19T09:31:03.271Z,11.98
2023-05-19T09:33:37.268Z,8.07
2023-05-19T09:36:10.972Z,5.88
2023-05-19T09:38:42.014Z,9.88
2023-05-19T09:41:17.020Z,9.43
2023-05-19T09:43:57.073Z,8.43
2023-05-19T09:46:28.730Z,8.38
2023-05-19T09:48:59.781Z,5.70
2023-05-19T09:51:32.157Z,6.82
2023-05-19T09:54:02.480Z,8.80
2023-05-19T09:56:36.435Z,11.20
2023-05-19T09:59:08.349Z,6.03
2023-05-19T10:01:41.765Z,8.10
2023-05-19T10:04:12.799Z,8.15
2023-05-19T10:06:44.989Z,8.50
2023-05-19T10:09:16.265Z,8.80
2023-05-19T10:11:49.077Z,5.93
2023-05-19T10:14:21.441Z,11.17
2023-05-19T10:16:53.841Z,6.88
2023-05-19T10:19:27.193Z,10.07
2023-05-19T10:21:58.775Z,5.90
2023-05-19T10:24:29.023Z,6.22
2023-05-19T10:27:09.194Z,5.55
2023-05-19T10:29:45.845Z,6.43
2023-05-19T10:32:21.164Z,8.00
2023-05-19T10:35:45.237Z,5.95
2023-05-19T10:38:29.358Z,7.38
2023-05-19T10:41:08.886Z,7.93
2023-05-19T10:43:54.626Z,7.97
2023-05-19T10:46:28.538Z,5.72
2023-05-19T10:48:59.480Z,7.20
2023-05-19T10:51:33.852Z,7.07
2023-05-19T10:54:10.982Z,6.88
2023-05-19T10:56:45.985Z,7.18
2023-05-19T10:59:39.555Z,8.90
2023-05-19T11:02:10.846Z,7.15
2023-05-19T11:04:51.091Z,9.88
2023-05-19T11:07:24.780Z,6.63
2023-05-19T11:09:55.894Z,6.45
2023-05-19T11:12:26.589Z,6.80
2023-05-19T11:15:00.660Z,8.93
2023-05-19T11:17:32.234Z,6.45
2023-05-19T11:20:04.741Z,7.13
2023-05-19T11:22:37.242Z,8.30
2023-05-19T11:25:09.942Z,8.27
2023-05-19T11:27:40.969Z,8.13
2023-05-19T11:30:15.238Z,10.25
2023-05-19T11:32:48.749Z,10.63
2023-05-19T11:35:21.553Z,10.73
2023-05-19T11:37:52.537Z,10.55
2023-05-19T11:40:24.510Z,11.88
2023-05-19T11:42:55.111Z,20.38
2023-05-19T11:45:33.109Z,13.50
2023-05-19T11:48:04.443Z,9.90
2023-05-19T11:50:38.234Z,10.68
2023-05-19T11:53:09.627Z,11.02
2023-05-19T11:55:46.037Z,9.02
2023-05-19T11:58:17.475Z,16.65
2023-05-19T12:00:50.029Z,10.18
2023-05-19T12:03:28.881Z,12.52
2023-05-19T12:05:59.754Z,8.98
2023-05-19T12:08:31.595Z,11.93
2023-05-19T12:11:02.366Z,12.38
2023-05-19T12:13:32.743Z,13.13
2023-05-19T12:16:06.375Z,10.25
2023-05-19T12:21:09.506Z,11.38
2023-05-19T12:23:41.691Z,6.47
2023-05-19T12:26:12.506Z,8.60
2023-05-19T12:28:42.999Z,9.90
2023-05-19T12:31:15.366Z,8.85
2023-05-19T12:33:46.744Z,8.48
2023-05-19T12:36:18.103Z,9.20
2023-05-19T12:38:54.621Z,9.15
2023-05-19T12:41:27.804Z,7.07
2023-05-19T12:43:58.194Z,9.25
2023-05-19T12:46:34.136Z,7.80
2023-05-19T12:49:04.549Z,9.80
2023-05-19T12:51:35.421Z,11.10
2023-05-19T12:54:06.041Z,11.10
2023-05-19T12:56:37.132Z,11.88
2023-05-19T12:59:07.531Z,12.68
2023-05-19T13:01:39.899Z,15.80
2023-05-19T13:04:10.772Z,8.18
2023-05-19T13:06:43.856Z,7.30
2023-05-19T13:09:17.000Z,9.95
2023-05-19T13:11:51.279Z,18.55
2023-05-19T13:14:21.692Z,10.60
2023-05-19T13:16:53.945Z,7.00
2023-05-19T13:19:25.775Z,15.10
2023-05-19T13:21:57.546Z,13.45
2023-05-19T13:24:28.023Z,9.63
2023-05-19T13:26:58.997Z,9.75
2023-05-19T13:29:29.533Z,14.18
2023-05-19T13:32:02.006Z,12.98
2023-05-19T13:34:32.549Z,11.50
2023-05-19T13:37:03.788Z,11.25
2023-05-19T13:39:34.520Z,12.40
2023-05-19T13:42:06.511Z,15.00
2023-05-19T13:44:37.085Z,11.70
2023-05-19T13:47:09.233Z,10.02
2023-05-19T13:49:39.987Z,15.20
2023-05-19T13:52:11.707Z,12.35
2023-05-19T13:54:43.530Z,19.38
2023-05-19T13:57:15.078Z,19.17
2023-05-19T14:00:01.013Z,15.40
2023-05-19T14:02:56.418Z,16.27
2023-05-19T14:05:28.551Z,14.98
2023-05-19T14:08:00.673Z,24.00
2023-05-19T14:10:31.568Z,18.25
2023-05-19T14:13:29.901Z,22.47
2023-05-19T14:15:56.312Z,19.92
2023-05-19T14:18:28.712Z,20.17
2023-05-19T14:20:59.106Z,20.65
2023-05-19T14:23:30.438Z,25.48
2023-05-19T14:26:01.087Z,28.38
2023-05-19T14:28:32.004Z,21.15
2023-05-19T14:31:02.455Z,20.63
2023-05-19T14:33:35.649Z,18.10
2023-05-19T14:36:06.879Z,18.83
2023-05-19T14:38:38.153Z,17.50
2023-05-19T14:41:08.632Z,22.08
2023-05-19T14:43:41.545Z,19.35
2023-05-19T14:46:12.092Z,16.73
2023-05-19T14:48:44.182Z,20.17
2023-05-19T14:51:14.464Z,18.67
2023-05-19T14:53:45.149Z,17.02
2023-05-19T14:56:15.594Z,20.17
2023-05-19T14:58:46.802Z,17.27
2023-05-19T15:01:17.339Z,20.20
2023-05-19T15:03:49.552Z,21.95
2023-05-19T15:06:20.068Z,24.23
2023-05-19T15:08:51.102Z,17.13
2023-05-19T15:11:22.524Z,19.60
2023-05-19T15:13:53.346Z,26.45
2023-05-19T15:16:23.674Z,23.80
2023-05-19T15:18:55.834Z,21.58
2023-05-19T15:21:26.125Z,19.40
2023-05-19T15:23:56.929Z,12.07
2023-05-19T15:29:00.748Z,13.38
2023-05-19T15:31:31.078Z,13.40
2023-05-19T15:34:03.153Z,9.15
2023-05-19T15:36:36.071Z,10.05
2023-05-19T15:39:06.787Z,12.65
2023-05-19T15:41:37.336Z,11.23
2023-05-19T15:44:08.443Z,10.40
2023-05-19T15:46:39.101Z,14.13
2023-05-19T15:49:31.691Z,13.90
2023-05-19T15:52:02.252Z,14.77
2023-05-19T15:54:32.955Z,14.27
2023-05-19T15:57:03.143Z,14.77
2023-05-19T15:59:34.036Z,23.23
2023-05-19T16:02:04.679Z,13.18
2023-05-19T16:04:37.884Z,15.10
2023-05-19T16:07:08.251Z,15.80
2023-05-19T16:09:39.080Z,13.65
2023-05-19T16:12:09.766Z,15.63
2023-05-19T16:14:40.696Z,14.48
2023-05-19T16:17:13.893Z,14.27
2023-05-19T16:19:46.540Z,14.07
2023-05-19T16:22:18.150Z,14.93
2023-05-19T16:24:48.795Z,15.20
2023-05-19T16:27:19.423Z,14.82
2023-05-19T16:29:50.483Z,17.42
2023-05-19T16:32:21.119Z,14.93
2023-05-19T16:34:53.473Z,15.13
2023-05-19T16:37:23.907Z,18.00
2023-05-19T16:39:54.697Z,16.88
2023-05-19T16:42:25.464Z,20.27
2023-05-19T16:44:56.152Z,16.02
2023-05-19T16:47:26.650Z,19.10
2023-05-19T16:49:58.857Z,14.60
2023-05-19T16:52:29.359Z,18.02
2023-05-19T16:55:00.191Z,19.52
2023-05-19T16:57:30.640Z,22.35
2023-05-19T17:00:01.392Z,17.58
2023-05-19T17:02:31.732Z,29.15
2023-05-19T17:05:04.286Z,19.77
2023-05-19T17:07:34.626Z,17.88
2023-05-19T17:10:05.958Z,23.73
2023-05-19T17:12:37.050Z,20.98
2023-05-19T17:15:09.389Z,22.40
2023-05-19T17:17:39.785Z,18.70
2023-05-19T17:20:13.717Z,16.38
2023-05-19T17:22:44.153Z,22.63
2023-05-19T17:25:17.420Z,22.67
2023-05-19T17:27:52.459Z,42.50
2023-05-19T17:30:23.408Z,26.58
2023-05-19T17:32:53.898Z,21.70
2023-05-19T17:35:27.533Z,39.28
2023-05-19T17:37:59.400Z,29.38
2023-05-19T17:40:30.660Z,33.63
2023-05-19T17:43:01.308Z,33.70
2023-05-19T17:45:32.196Z,22.00
2023-05-19T17:48:02.699Z,25.63
2023-05-19T17:50:34.966Z,28.52
2023-05-19T17:53:06.173Z,31.00
2023-05-19T17:55:38.146Z,29.50
2023-05-19T17:58:09.338Z,34.10
2023-05-19T18:00:40.994Z,27.02
2023-05-19T18:03:12.358Z,26.50
2023-05-19T18:05:46.534Z,27.10
2023-05-19T18:08:18.783Z,19.02
2023-05-19T18:10:53.471Z,18.00
2023-05-19T18:15:54.594Z,16.58
2023-05-19T18:18:25.451Z,18.00
2023-05-19T18:21:02.394Z,16.67
2023-05-19T18:23:32.742Z,28.27
2023-05-19T18:26:04.293Z,34.33
2023-05-19T18:28:36.423Z,38.58
2023-05-19T18:31:09.457Z,35.28
2023-05-19T18:33:41.207Z,25.92
2023-05-19T18:36:13.666Z,23.45
2023-05-19T18:38:44.363Z,23.98
2023-05-19T18:41:16.280Z,21.33
2023-05-19T18:43:46.668Z,18.88
2023-05-19T18:46:19.427Z,16.80
2023-05-19T18:48:50.797Z,16.80
2023-05-19T18:51:24.148Z,16.60
2023-05-19T18:53:56.070Z,16.92
2023-05-19T18:56:28.086Z,20.65
2023-05-19T18:59:03.453Z,16.23
2023-05-19T19:01:34.467Z,19.00
2023-05-19T19:04:05.722Z,17.45
2023-05-19T19:06:41.381Z,20.50
2023-05-19T19:09:16.379Z,19.65
2023-05-19T19:11:47.441Z,21.33
2023-05-19T19:14:19.556Z,17.95
2023-05-19T19:16:54.071Z,19.60
2023-05-19T19:19:25.584Z,18.38
2023-05-19T19:21:58.189Z,19.23
2023-05-19T19:24:31.102Z,20.10
2023-05-19T19:29:32.077Z,15.18
2023-05-19T19:32:02.899Z,15.50
2023-05-19T19:34:33.415Z,16.63
2023-05-19T19:37:06.078Z,19.10
2023-05-19T19:39:36.581Z,16.05
2023-05-19T19:42:10.857Z,19.02
2023-05-19T19:44:43.049Z,20.27
2023-05-19T19:47:14.035Z,16.52
2023-05-19T19:49:45.938Z,17.13
2023-05-19T19:52:19.366Z,16.70
2023-05-19T19:54:51.150Z,18.17
2023-05-19T19:57:22.090Z,16.30
2023-05-19T19:59:58.418Z,19.73
2023-05-19T20:02:30.433Z,20.88
2023-05-19T20:05:02.037Z,18.05
2023-05-19T20:07:34.334Z,19.48
2023-05-19T20:10:04.805Z,16.60
2023-05-19T20:12:36.792Z,19.77
2023-05-19T20:15:09.944Z,17.10
2023-05-19T20:20:13.561Z,18.48
2023-05-19T20:22:46.158Z,22.20
2023-05-19T20:25:16.871Z,22.17
2023-05-19T20:27:49.013Z,20.20
2023-05-19T20:30:21.438Z,18.88
2023-05-19T20:32:55.167Z,20.17
2023-05-19T20:35:26.732Z,22.70
2023-05-19T20:37:59.587Z,23.08
2023-05-19T20:40:38.260Z,22.52
2023-05-19T20:43:11.674Z,19.13
2023-05-19T20:45:45.865Z,27.60
2023-05-19T20:48:16.792Z,23.85
2023-05-19T20:50:47.138Z,23.38
2023-05-19T20:53:21.817Z,21.10
2023-05-19T20:55:52.830Z,22.83
2023-05-19T20:58:27.570Z,21.23
2023-05-19T21:00:59.134Z,24.38
2023-05-19T21:03:31.140Z,23.17
2023-05-19T21:06:01.992Z,21.55
2023-05-19T21:08:34.143Z,22.33
2023-05-19T21:11:04.893Z,22.55
2023-05-19T21:13:40.533Z,23.42
2023-05-19T21:16:12.348Z,21.15
2023-05-19T21:18:44.682Z,22.38
2023-05-19T21:21:15.380Z,22.85
2023-05-19T21:23:48.251Z,27.75
2023-05-19T21:26:19.116Z,27.23
2023-05-19T21:28:51.997Z,28.15
2023-05-19T21:31:22.772Z,30.70
2023-05-19T21:33:53.970Z,34.50
2023-05-19T21:36:24.375Z,31.50
2023-05-19T21:38:59.401Z,35.13
2023-05-19T21:41:31.217Z,31.58
2023-05-19T21:44:02.010Z,36.50
2023-05-19T21:46:32.510Z,33.40
2023-05-19T21:49:03.589Z,27.90
2023-05-19T21:51:35.256Z,32.85
2023-05-19T21:54:07.926Z,29.90
2023-05-19T21:56:41.753Z,32.60
2023-05-19T21:59:13.913Z,26.83
2023-05-19T22:01:44.753Z,30.73
2023-05-19T22:04:18.491Z,30.48
2023-05-19T22:06:49.188Z,32.72
2023-05-19T22:09:22.727Z,29.52
2023-05-19T22:11:53.562Z,39.53
2023-05-19T22:14:24.087Z,35.50
2023-05-19T22:16:54.542Z,39.17
2023-05-19T22:19:26.731Z,37.85
2023-05-19T22:22:09.764Z,37.67
2023-05-19T22:24:42.629Z,35.65
2023-05-19T22:27:13.077Z,36.63
2023-05-19T22:29:43.859Z,37.05
2023-05-19T22:32:16.944Z,38.85
2023-05-19T22:37:18.011Z,37.83
2023-05-19T22:39:50.036Z,32.45
2023-05-19T22:42:20.541Z,39.08
2023-05-19T22:44:51.313Z,34.88
2023-05-19T22:47:21.841Z,34.40
2023-05-19T22:49:54.812Z,33.70
2023-05-19T22:54:57.960Z,31.60
2023-05-19T22:57:28.221Z,33.78
2023-05-19T22:59:59.230Z,34.47
2023-05-19T23:02:29.684Z,35.33
2023-05-19T23:05:00.520Z,36.38
2023-05-19T23:07:30.878Z,35.20
2023-05-19T23:10:03.574Z,36.70
2023-05-19T23:12:34.032Z,35.17
2023-05-19T23:15:05.360Z,37.17
2023-05-19T23:17:36.942Z,38.78
2023-05-19T23:20:09.269Z,38.45
2023-05-19T23:22:39.581Z,33.22
2023-05-19T23:25:11.951Z,38.90
2023-05-19T23:27:42.621Z,38.35
2023-05-19T23:30:13.742Z,35.67
2023-05-19T23:32:44.158Z,34.85
2023-05-19T23:35:17.515Z,35.47
2023-05-19T23:37:47.928Z,40.53
2023-05-19T23:40:20.719Z,37.90
2023-05-19T23:42:51.274Z,36.70
2023-05-19T23:45:22.227Z,40.03
2023-05-19T23:47:54.855Z,39.60
2023-05-19T23:50:25.620Z,42.70
2023-05-19T23:52:56.006Z,40.75
2023-05-19T23:55:28.795Z,39.17
2023-05-19T23:57:59.960Z,42.05
